sensor_id;sensor_type;location;lat;lon;timestamp;P1;durP1;ratioP1;P2;durP2;ratioP2
3698;SDS011;1865;50.918;7.092;2023-03-21T00:00:30;11.77;;;2.43;;
3698;SDS011;1865;50.918;7.092;2023-03-21T00:02:56;10.37;;;2.70;;
3698;SDS011;1865;50.918;7.092;2023-03-21T00:05:21;12.10;;;3.10;;
3698;SDS011;1865;50.918;7.092;2023-03-21T00:07:47;10.80;;;2.60;;
3698;SDS011;1865;50.918;7.092;2023-03-21T00:10:13;19.97;;;2.60;;
3698;SDS011;1865;50.918;7.092;2023-03-21T00:12:38;10.57;;;2.53;;
3698;SDS011;1865;50.918;7.092;2023-03-21T00:15:05;10.60;;;2.40;;
3698;SDS011;1865;50.918;7.092;2023-03-21T00:17:31;11.47;;;2.30;;
3698;SDS011;1865;50.918;7.092;2023-03-21T00:19:58;12.00;;;3.07;;
3698;SDS011;1865;50.918;7.092;2023-03-21T00:22:24;11.13;;;2.90;;
3698;SDS011;1865;50.918;7.092;2023-03-21T00:24:51;11.73;;;3.20;;
3698;SDS011;1865;50.918;7.092;2023-03-21T00:27:16;18.10;;;3.90;;
3698;SDS011;1865;50.918;7.092;2023-03-21T00:29:44;13.90;;;4.90;;
3698;SDS011;1865;50.918;7.092;2023-03-21T00:32:10;15.97;;;5.00;;
3698;SDS011;1865;50.918;7.092;2023-03-21T00:34:36;20.03;;;6.13;;
3698;SDS011;1865;50.918;7.092;2023-03-21T00:37:02;19.80;;;6.27;;
3698;SDS011;1865;50.918;7.092;2023-03-21T00:39:28;16.77;;;7.43;;
3698;SDS011;1865;50.918;7.092;2023-03-21T00:41:53;17.57;;;6.60;;
3698;SDS011;1865;50.918;7.092;2023-03-21T00:44:19;23.83;;;7.43;;
3698;SDS011;1865;50.918;7.092;2023-03-21T00:46:45;20.10;;;8.00;;
3698;SDS011;1865;50.918;7.092;2023-03-21T00:49:10;21.30;;;7.13;;
3698;SDS011;1865;50.918;7.092;2023-03-21T00:51:36;22.90;;;7.80;;
3698;SDS011;1865;50.918;7.092;2023-03-21T00:54:02;14.87;;;6.63;;
3698;SDS011;1865;50.918;7.092;2023-03-21T00:56:29;16.53;;;6.03;;
3698;SDS011;1865;50.918;7.092;2023-03-21T00:58:55;22.27;;;5.73;;
3698;SDS011;1865;50.918;7.092;2023-03-21T01:01:21;20.80;;;7.13;;
3698;SDS011;1865;50.918;7.092;2023-03-21T01:03:47;16.27;;;5.23;;
3698;SDS011;1865;50.918;7.092;2023-03-21T01:06:15;17.67;;;5.50;;
3698;SDS011;1865;50.918;7.092;2023-03-21T01:08:43;16.23;;;5.87;;
3698;SDS011;1865;50.918;7.092;2023-03-21T01:11:11;13.70;;;3.93;;
3698;SDS011;1865;50.918;7.092;2023-03-21T01:13:39;18.73;;;3.90;;
3698;SDS011;1865;50.918;7.092;2023-03-21T01:16:05;13.40;;;3.00;;
3698;SDS011;1865;50.918;7.092;2023-03-21T01:18:32;11.20;;;3.60;;
3698;SDS011;1865;50.918;7.092;2023-03-21T01:20:59;11.53;;;3.27;;
3698;SDS011;1865;50.918;7.092;2023-03-21T01:23:26;10.90;;;2.67;;
3698;SDS011;1865;50.918;7.092;2023-03-21T01:25:54;10.60;;;2.97;;
3698;SDS011;1865;50.918;7.092;2023-03-21T01:28:20;16.20;;;2.53;;
3698;SDS011;1865;50.918;7.092;2023-03-21T01:30:47;14.70;;;3.60;;
3698;SDS011;1865;50.918;7.092;2023-03-21T01:33:14;14.27;;;3.10;;
3698;SDS011;1865;50.918;7.092;2023-03-21T01:35:41;11.20;;;2.83;;
3698;SDS011;1865;50.918;7.092;2023-03-21T01:38:07;12.90;;;2.67;;
3698;SDS011;1865;50.918;7.092;2023-03-21T01:40:34;13.10;;;3.07;;
3698;SDS011;1865;50.918;7.092;2023-03-21T01:42:59;12.17;;;2.70;;
3698;SDS011;1865;50.918;7.092;2023-03-21T01:48:28;13.00;;;4.13;;
3698;SDS011;1865;50.918;7.092;2023-03-21T01:50:54;11.80;;;2.97;;
3698;SDS011;1865;50.918;7.092;2023-03-21T01:53:21;17.50;;;3.20;;
3698;SDS011;1865;50.918;7.092;2023-03-21T01:55:54;17.33;;;2.70;;
3698;SDS011;1865;50.918;7.092;2023-03-21T01:58:41;15.50;;;2.77;;
3698;SDS011;1865;50.918;7.092;2023-03-21T02:01:09;16.13;;;3.17;;
3698;SDS011;1865;50.918;7.092;2023-03-21T02:03:37;12.60;;;2.80;;
3698;SDS011;1865;50.918;7.092;2023-03-21T02:06:14;13.97;;;3.07;;
3698;SDS011;1865;50.918;7.092;2023-03-21T02:08:44;15.73;;;2.83;;
3698;SDS011;1865;50.918;7.092;2023-03-21T02:11:10;11.50;;;2.90;;
3698;SDS011;1865;50.918;7.092;2023-03-21T02:13:36;11.30;;;2.80;;
3698;SDS011;1865;50.918;7.092;2023-03-21T02:16:13;13.50;;;3.33;;
3698;SDS011;1865;50.918;7.092;2023-03-21T02:21:29;12.47;;;3.10;;
3698;SDS011;1865;50.918;7.092;2023-03-21T02:24:21;10.87;;;2.90;;
3698;SDS011;1865;50.918;7.092;2023-03-21T02:29:58;8.23;;;2.63;;
3698;SDS011;1865;50.918;7.092;2023-03-21T02:35:24;12.63;;;3.20;;
3698;SDS011;1865;50.918;7.092;2023-03-21T02:38:21;14.17;;;3.57;;
3698;SDS011;1865;50.918;7.092;2023-03-21T02:40:52;13.00;;;2.90;;
3698;SDS011;1865;50.918;7.092;2023-03-21T02:43:32;11.33;;;3.27;;
3698;SDS011;1865;50.918;7.092;2023-03-21T02:46:20;14.77;;;3.40;;
3698;SDS011;1865;50.918;7.092;2023-03-21T02:49:06;13.63;;;3.33;;
3698;SDS011;1865;50.918;7.092;2023-03-21T02:51:39;12.80;;;3.20;;
3698;SDS011;1865;50.918;7.092;2023-03-21T02:54:14;11.93;;;2.90;;
3698;SDS011;1865;50.918;7.092;2023-03-21T02:56:43;11.27;;;3.50;;
3698;SDS011;1865;50.918;7.092;2023-03-21T02:59:11;12.90;;;3.50;;
3698;SDS011;1865;50.918;7.092;2023-03-21T03:01:38;12.90;;;2.90;;
3698;SDS011;1865;50.918;7.092;2023-03-21T03:04:15;17.13;;;3.40;;
3698;SDS011;1865;50.918;7.092;2023-03-21T03:06:46;9.40;;;2.80;;
3698;SDS011;1865;50.918;7.092;2023-03-21T03:09:25;10.47;;;3.00;;
3698;SDS011;1865;50.918;7.092;2023-03-21T03:23:40;12.63;;;3.10;;
3698;SDS011;1865;50.918;7.092;2023-03-21T03:26:08;13.73;;;3.47;;
3698;SDS011;1865;50.918;7.092;2023-03-21T03:28:43;12.73;;;3.20;;
3698;SDS011;1865;50.918;7.092;2023-03-21T03:31:13;16.73;;;3.60;;
3698;SDS011;1865;50.918;7.092;2023-03-21T03:33:45;11.80;;;2.63;;
3698;SDS011;1865;50.918;7.092;2023-03-21T03:36:16;9.77;;;2.43;;
3698;SDS011;1865;50.918;7.092;2023-03-21T03:38:44;7.97;;;2.80;;
3698;SDS011;1865;50.918;7.092;2023-03-21T03:41:13;11.33;;;3.03;;
3698;SDS011;1865;50.918;7.092;2023-03-21T03:43:47;25.80;;;2.97;;
3698;SDS011;1865;50.918;7.092;2023-03-21T03:46:18;11.57;;;2.90;;
3698;SDS011;1865;50.918;7.092;2023-03-21T03:48:54;15.20;;;3.60;;
3698;SDS011;1865;50.918;7.092;2023-03-21T03:51:25;12.93;;;3.30;;
3698;SDS011;1865;50.918;7.092;2023-03-21T03:54:07;14.10;;;3.30;;
3698;SDS011;1865;50.918;7.092;2023-03-21T03:56:41;13.80;;;2.83;;
3698;SDS011;1865;50.918;7.092;2023-03-21T03:59:07;15.80;;;3.10;;
3698;SDS011;1865;50.918;7.092;2023-03-21T04:01:33;13.57;;;2.70;;
3698;SDS011;1865;50.918;7.092;2023-03-21T04:03:59;12.47;;;3.23;;
3698;SDS011;1865;50.918;7.092;2023-03-21T04:06:25;11.70;;;2.90;;
3698;SDS011;1865;50.918;7.092;2023-03-21T04:08:53;14.83;;;3.40;;
3698;SDS011;1865;50.918;7.092;2023-03-21T04:11:20;13.97;;;2.83;;
3698;SDS011;1865;50.918;7.092;2023-03-21T04:13:45;9.00;;;3.00;;
3698;SDS011;1865;50.918;7.092;2023-03-21T04:16:11;9.23;;;3.17;;
3698;SDS011;1865;50.918;7.092;2023-03-21T04:18:36;18.27;;;3.33;;
3698;SDS011;1865;50.918;7.092;2023-03-21T04:21:05;13.63;;;3.00;;
3698;SDS011;1865;50.918;7.092;2023-03-21T04:23:36;11.70;;;3.00;;
3698;SDS011;1865;50.918;7.092;2023-03-21T04:26:03;15.07;;;3.30;;
3698;SDS011;1865;50.918;7.092;2023-03-21T04:28:29;12.20;;;3.23;;
3698;SDS011;1865;50.918;7.092;2023-03-21T04:30:55;15.40;;;3.13;;
3698;SDS011;1865;50.918;7.092;2023-03-21T04:33:22;9.67;;;3.07;;
3698;SDS011;1865;50.918;7.092;2023-03-21T04:35:49;12.57;;;3.20;;
3698;SDS011;1865;50.918;7.092;2023-03-21T04:38:20;12.47;;;2.83;;
3698;SDS011;1865;50.918;7.092;2023-03-21T04:40:47;12.60;;;3.03;;
3698;SDS011;1865;50.918;7.092;2023-03-21T04:43:13;16.20;;;3.60;;
3698;SDS011;1865;50.918;7.092;2023-03-21T04:45:38;14.70;;;3.17;;
3698;SDS011;1865;50.918;7.092;2023-03-21T04:48:04;12.50;;;2.83;;
3698;SDS011;1865;50.918;7.092;2023-03-21T04:50:30;11.30;;;3.00;;
3698;SDS011;1865;50.918;7.092;2023-03-21T04:52:56;12.63;;;2.83;;
3698;SDS011;1865;50.918;7.092;2023-03-21T04:55:22;16.23;;;3.53;;
3698;SDS011;1865;50.918;7.092;2023-03-21T04:57:50;11.30;;;2.67;;
3698;SDS011;1865;50.918;7.092;2023-03-21T05:00:16;13.37;;;3.57;;
3698;SDS011;1865;50.918;7.092;2023-03-21T05:02:41;10.37;;;3.37;;
3698;SDS011;1865;50.918;7.092;2023-03-21T05:05:07;15.37;;;4.10;;
3698;SDS011;1865;50.918;7.092;2023-03-21T05:07:35;12.60;;;4.73;;
3698;SDS011;1865;50.918;7.092;2023-03-21T05:10:03;10.03;;;3.00;;
3698;SDS011;1865;50.918;7.092;2023-03-21T05:12:29;16.63;;;4.20;;
3698;SDS011;1865;50.918;7.092;2023-03-21T05:14:55;17.20;;;3.07;;
3698;SDS011;1865;50.918;7.092;2023-03-21T05:17:20;11.43;;;3.13;;
3698;SDS011;1865;50.918;7.092;2023-03-21T05:19:48;17.40;;;3.80;;
3698;SDS011;1865;50.918;7.092;2023-03-21T05:22:16;14.40;;;3.10;;
3698;SDS011;1865;50.918;7.092;2023-03-21T05:24:43;16.70;;;3.80;;
3698;SDS011;1865;50.918;7.092;2023-03-21T05:27:17;16.50;;;3.60;;
3698;SDS011;1865;50.918;7.092;2023-03-21T05:30:07;14.23;;;3.57;;
3698;SDS011;1865;50.918;7.092;2023-03-21T05:32:37;13.73;;;3.07;;
3698;SDS011;1865;50.918;7.092;2023-03-21T05:35:03;16.83;;;3.43;;
3698;SDS011;1865;50.918;7.092;2023-03-21T05:37:29;15.47;;;4.00;;
3698;SDS011;1865;50.918;7.092;2023-03-21T05:39:55;16.30;;;3.87;;
3698;SDS011;1865;50.918;7.092;2023-03-21T05:42:20;15.27;;;3.50;;
3698;SDS011;1865;50.918;7.092;2023-03-21T05:44:46;13.90;;;3.53;;
3698;SDS011;1865;50.918;7.092;2023-03-21T05:47:12;11.00;;;3.40;;
3698;SDS011;1865;50.918;7.092;2023-03-21T05:49:38;12.40;;;4.20;;
3698;SDS011;1865;50.918;7.092;2023-03-21T05:52:04;12.53;;;4.00;;
3698;SDS011;1865;50.918;7.092;2023-03-21T05:54:30;20.60;;;4.67;;
3698;SDS011;1865;50.918;7.092;2023-03-21T05:56:55;13.73;;;3.33;;
3698;SDS011;1865;50.918;7.092;2023-03-21T05:59:21;11.10;;;4.13;;
3698;SDS011;1865;50.918;7.092;2023-03-21T06:01:46;12.33;;;3.67;;
3698;SDS011;1865;50.918;7.092;2023-03-21T06:04:12;10.93;;;3.27;;
3698;SDS011;1865;50.918;7.092;2023-03-21T06:06:38;16.10;;;3.57;;
3698;SDS011;1865;50.918;7.092;2023-03-21T06:09:03;11.83;;;4.13;;
3698;SDS011;1865;50.918;7.092;2023-03-21T06:11:31;11.90;;;3.20;;
3698;SDS011;1865;50.918;7.092;2023-03-21T06:13:59;17.80;;;3.73;;
3698;SDS011;1865;50.918;7.092;2023-03-21T06:16:25;16.13;;;3.83;;
3698;SDS011;1865;50.918;7.092;2023-03-21T06:18:52;16.30;;;3.40;;
3698;SDS011;1865;50.918;7.092;2023-03-21T06:21:18;12.80;;;3.70;;
3698;SDS011;1865;50.918;7.092;2023-03-21T06:23:44;17.47;;;3.10;;
3698;SDS011;1865;50.918;7.092;2023-03-21T06:26:10;15.37;;;4.37;;
3698;SDS011;1865;50.918;7.092;2023-03-21T06:28:36;9.77;;;3.23;;
3698;SDS011;1865;50.918;7.092;2023-03-21T06:31:02;18.37;;;3.80;;
3698;SDS011;1865;50.918;7.092;2023-03-21T06:33:28;15.90;;;3.57;;
3698;SDS011;1865;50.918;7.092;2023-03-21T06:35:54;14.93;;;4.13;;
3698;SDS011;1865;50.918;7.092;2023-03-21T06:38:21;19.87;;;4.57;;
3698;SDS011;1865;50.918;7.092;2023-03-21T06:40:47;11.70;;;3.63;;
3698;SDS011;1865;50.918;7.092;2023-03-21T06:43:13;14.60;;;4.23;;
3698;SDS011;1865;50.918;7.092;2023-03-21T06:45:40;18.27;;;4.27;;
3698;SDS011;1865;50.918;7.092;2023-03-21T06:48:06;14.60;;;3.53;;
3698;SDS011;1865;50.918;7.092;2023-03-21T06:50:31;20.00;;;5.10;;
3698;SDS011;1865;50.918;7.092;2023-03-21T06:52:57;22.87;;;4.50;;
3698;SDS011;1865;50.918;7.092;2023-03-21T06:55:23;12.70;;;3.70;;
3698;SDS011;1865;50.918;7.092;2023-03-21T06:57:51;16.07;;;4.10;;
3698;SDS011;1865;50.918;7.092;2023-03-21T07:00:17;17.67;;;4.23;;
3698;SDS011;1865;50.918;7.092;2023-03-21T07:02:44;15.90;;;5.20;;
3698;SDS011;1865;50.918;7.092;2023-03-21T07:05:10;16.50;;;4.97;;
3698;SDS011;1865;50.918;7.092;2023-03-21T07:07:36;15.17;;;4.10;;
3698;SDS011;1865;50.918;7.092;2023-03-21T07:10:02;18.00;;;4.27;;
3698;SDS011;1865;50.918;7.092;2023-03-21T07:12:28;20.73;;;4.37;;
3698;SDS011;1865;50.918;7.092;2023-03-21T07:14:57;17.20;;;4.27;;
3698;SDS011;1865;50.918;7.092;2023-03-21T07:17:23;18.00;;;5.47;;
3698;SDS011;1865;50.918;7.092;2023-03-21T07:19:49;14.77;;;4.77;;
3698;SDS011;1865;50.918;7.092;2023-03-21T07:22:15;18.10;;;4.57;;
3698;SDS011;1865;50.918;7.092;2023-03-21T07:24:40;14.57;;;4.20;;
3698;SDS011;1865;50.918;7.092;2023-03-21T07:27:06;21.93;;;5.53;;
3698;SDS011;1865;50.918;7.092;2023-03-21T07:29:31;16.00;;;4.33;;
3698;SDS011;1865;50.918;7.092;2023-03-21T07:31:57;12.20;;;4.00;;
3698;SDS011;1865;50.918;7.092;2023-03-21T07:34:22;14.13;;;4.60;;
3698;SDS011;1865;50.918;7.092;2023-03-21T07:36:48;17.73;;;4.80;;
3698;SDS011;1865;50.918;7.092;2023-03-21T07:39:13;15.23;;;4.40;;
3698;SDS011;1865;50.918;7.092;2023-03-21T07:41:39;18.53;;;4.93;;
3698;SDS011;1865;50.918;7.092;2023-03-21T07:44:05;15.90;;;4.00;;
3698;SDS011;1865;50.918;7.092;2023-03-21T07:46:30;13.20;;;4.73;;
3698;SDS011;1865;50.918;7.092;2023-03-21T07:48:56;13.10;;;4.47;;
3698;SDS011;1865;50.918;7.092;2023-03-21T07:51:21;15.77;;;5.70;;
3698;SDS011;1865;50.918;7.092;2023-03-21T07:53:47;20.77;;;5.57;;
3698;SDS011;1865;50.918;7.092;2023-03-21T07:56:13;17.07;;;6.40;;
3698;SDS011;1865;50.918;7.092;2023-03-21T07:58:39;17.00;;;6.40;;
3698;SDS011;1865;50.918;7.092;2023-03-21T08:01:05;17.93;;;5.47;;
3698;SDS011;1865;50.918;7.092;2023-03-21T08:03:30;17.97;;;7.10;;
3698;SDS011;1865;50.918;7.092;2023-03-21T08:05:58;26.00;;;7.50;;
3698;SDS011;1865;50.918;7.092;2023-03-21T08:08:25;15.63;;;7.03;;
3698;SDS011;1865;50.918;7.092;2023-03-21T08:10:51;25.47;;;6.27;;
3698;SDS011;1865;50.918;7.092;2023-03-21T08:13:16;23.00;;;8.77;;
3698;SDS011;1865;50.918;7.092;2023-03-21T08:15:42;16.10;;;8.13;;
3698;SDS011;1865;50.918;7.092;2023-03-21T08:18:07;24.20;;;8.70;;
3698;SDS011;1865;50.918;7.092;2023-03-21T08:20:34;17.80;;;7.00;;
3698;SDS011;1865;50.918;7.092;2023-03-21T08:23:00;24.73;;;9.30;;
3698;SDS011;1865;50.918;7.092;2023-03-21T08:25:25;42.70;;;11.53;;
3698;SDS011;1865;50.918;7.092;2023-03-21T08:27:51;22.63;;;9.13;;
3698;SDS011;1865;50.918;7.092;2023-03-21T08:30:18;24.40;;;8.83;;
3698;SDS011;1865;50.918;7.092;2023-03-21T08:32:48;33.23;;;10.13;;
3698;SDS011;1865;50.918;7.092;2023-03-21T08:35:15;18.93;;;6.33;;
3698;SDS011;1865;50.918;7.092;2023-03-21T08:37:42;19.03;;;7.43;;
3698;SDS011;1865;50.918;7.092;2023-03-21T08:40:10;19.03;;;7.33;;
3698;SDS011;1865;50.918;7.092;2023-03-21T08:42:38;21.30;;;7.37;;
3698;SDS011;1865;50.918;7.092;2023-03-21T08:45:05;19.70;;;6.40;;
3698;SDS011;1865;50.918;7.092;2023-03-21T08:47:32;18.20;;;7.50;;
3698;SDS011;1865;50.918;7.092;2023-03-21T08:49:57;21.40;;;7.20;;
3698;SDS011;1865;50.918;7.092;2023-03-21T08:52:23;17.73;;;6.90;;
3698;SDS011;1865;50.918;7.092;2023-03-21T08:54:49;19.50;;;6.27;;
3698;SDS011;1865;50.918;7.092;2023-03-21T08:57:15;14.60;;;6.63;;
3698;SDS011;1865;50.918;7.092;2023-03-21T08:59:41;15.40;;;5.90;;
3698;SDS011;1865;50.918;7.092;2023-03-21T09:02:06;11.60;;;5.80;;
3698;SDS011;1865;50.918;7.092;2023-03-21T09:04:32;19.03;;;5.90;;
3698;SDS011;1865;50.918;7.092;2023-03-21T09:06:57;18.43;;;6.17;;
3698;SDS011;1865;50.918;7.092;2023-03-21T09:09:25;19.53;;;5.83;;
3698;SDS011;1865;50.918;7.092;2023-03-21T09:11:52;15.70;;;5.30;;
3698;SDS011;1865;50.918;7.092;2023-03-21T09:14:17;8.80;;;4.97;;
3698;SDS011;1865;50.918;7.092;2023-03-21T09:16:43;15.87;;;5.27;;
3698;SDS011;1865;50.918;7.092;2023-03-21T09:19:08;12.40;;;5.00;;
3698;SDS011;1865;50.918;7.092;2023-03-21T09:21:34;15.43;;;5.90;;
3698;SDS011;1865;50.918;7.092;2023-03-21T09:24:00;20.47;;;6.40;;
3698;SDS011;1865;50.918;7.092;2023-03-21T09:26:26;14.70;;;5.30;;
3698;SDS011;1865;50.918;7.092;2023-03-21T09:28:53;14.53;;;5.13;;
3698;SDS011;1865;50.918;7.092;2023-03-21T09:31:20;15.77;;;5.83;;
3698;SDS011;1865;50.918;7.092;2023-03-21T09:33:47;19.70;;;6.43;;
3698;SDS011;1865;50.918;7.092;2023-03-21T09:36:14;16.07;;;7.00;;
3698;SDS011;1865;50.918;7.092;2023-03-21T09:38:43;30.97;;;9.53;;
3698;SDS011;1865;50.918;7.092;2023-03-21T09:41:13;19.33;;;7.00;;
3698;SDS011;1865;50.918;7.092;2023-03-21T09:46:49;14.50;;;6.20;;
3698;SDS011;1865;50.918;7.092;2023-03-21T09:49:21;16.90;;;7.77;;
3698;SDS011;1865;50.918;7.092;2023-03-21T09:51:54;17.27;;;6.17;;
3698;SDS011;1865;50.918;7.092;2023-03-21T09:54:24;29.93;;;7.57;;
3698;SDS011;1865;50.918;7.092;2023-03-21T09:56:52;28.17;;;6.87;;
3698;SDS011;1865;50.918;7.092;2023-03-21T09:59:21;14.00;;;6.57;;
3698;SDS011;1865;50.918;7.092;2023-03-21T10:02:02;14.53;;;6.80;;
3698;SDS011;1865;50.918;7.092;2023-03-21T10:04:37;18.90;;;6.90;;
3698;SDS011;1865;50.918;7.092;2023-03-21T10:07:02;17.87;;;6.10;;
3698;SDS011;1865;50.918;7.092;2023-03-21T10:09:28;22.03;;;6.43;;
3698;SDS011;1865;50.918;7.092;2023-03-21T10:11:58;19.23;;;6.60;;
3698;SDS011;1865;50.918;7.092;2023-03-21T10:14:29;17.63;;;6.97;;
3698;SDS011;1865;50.918;7.092;2023-03-21T10:20:11;11.60;;;5.30;;
3698;SDS011;1865;50.918;7.092;2023-03-21T10:22:38;15.73;;;5.97;;
3698;SDS011;1865;50.918;7.092;2023-03-21T10:25:04;21.00;;;6.57;;
3698;SDS011;1865;50.918;7.092;2023-03-21T10:27:31;18.80;;;5.50;;
3698;SDS011;1865;50.918;7.092;2023-03-21T10:30:00;12.60;;;5.67;;
3698;SDS011;1865;50.918;7.092;2023-03-21T10:32:29;18.63;;;6.20;;
3698;SDS011;1865;50.918;7.092;2023-03-21T10:34:55;16.03;;;4.90;;
3698;SDS011;1865;50.918;7.092;2023-03-21T10:37:22;13.63;;;5.27;;
3698;SDS011;1865;50.918;7.092;2023-03-21T10:39:50;13.63;;;5.37;;
3698;SDS011;1865;50.918;7.092;2023-03-21T10:42:19;11.70;;;4.23;;
3698;SDS011;1865;50.918;7.092;2023-03-21T10:44:48;15.60;;;4.43;;
3698;SDS011;1865;50.918;7.092;2023-03-21T10:47:19;11.93;;;4.60;;
3698;SDS011;1865;50.918;7.092;2023-03-21T10:49:46;12.60;;;4.23;;
3698;SDS011;1865;50.918;7.092;2023-03-21T10:52:13;13.00;;;4.30;;
3698;SDS011;1865;50.918;7.092;2023-03-21T10:54:44;17.73;;;5.77;;
3698;SDS011;1865;50.918;7.092;2023-03-21T10:57:12;11.57;;;4.90;;
3698;SDS011;1865;50.918;7.092;2023-03-21T10:59:56;12.80;;;4.90;;
3698;SDS011;1865;50.918;7.092;2023-03-21T11:02:30;15.97;;;4.20;;
3698;SDS011;1865;50.918;7.092;2023-03-21T11:05:02;17.50;;;4.30;;
3698;SDS011;1865;50.918;7.092;2023-03-21T11:07:30;21.80;;;4.83;;
3698;SDS011;1865;50.918;7.092;2023-03-21T11:09:57;13.10;;;4.80;;
3698;SDS011;1865;50.918;7.092;2023-03-21T11:12:28;20.97;;;5.13;;
3698;SDS011;1865;50.918;7.092;2023-03-21T11:14:57;20.83;;;5.50;;
3698;SDS011;1865;50.918;7.092;2023-03-21T11:17:54;33.13;;;20.97;;
3698;SDS011;1865;50.918;7.092;2023-03-21T11:20:19;14.93;;;5.50;;
3698;SDS011;1865;50.918;7.092;2023-03-21T11:22:46;12.10;;;5.30;;
3698;SDS011;1865;50.918;7.092;2023-03-21T11:25:26;14.97;;;4.73;;
3698;SDS011;1865;50.918;7.092;2023-03-21T11:28:04;14.23;;;5.20;;
3698;SDS011;1865;50.918;7.092;2023-03-21T11:30:32;12.90;;;4.80;;
3698;SDS011;1865;50.918;7.092;2023-03-21T11:33:01;11.73;;;4.33;;
3698;SDS011;1865;50.918;7.092;2023-03-21T11:35:33;14.50;;;5.30;;
3698;SDS011;1865;50.918;7.092;2023-03-21T11:38:01;11.83;;;3.87;;
3698;SDS011;1865;50.918;7.092;2023-03-21T11:40:32;14.60;;;3.93;;
3698;SDS011;1865;50.918;7.092;2023-03-21T11:43:41;12.17;;;3.97;;
3698;SDS011;1865;50.918;7.092;2023-03-21T11:46:12;12.50;;;4.57;;
3698;SDS011;1865;50.918;7.092;2023-03-21T11:48:40;15.13;;;3.53;;
3698;SDS011;1865;50.918;7.092;2023-03-21T11:56:33;12.57;;;3.87;;
3698;SDS011;1865;50.918;7.092;2023-03-21T12:01:50;13.53;;;3.90;;
3698;SDS011;1865;50.918;7.092;2023-03-21T12:04:38;14.30;;;4.20;;
3698;SDS011;1865;50.918;7.092;2023-03-21T12:12:49;11.53;;;4.30;;
3698;SDS011;1865;50.918;7.092;2023-03-21T12:15:38;8.57;;;4.13;;
3698;SDS011;1865;50.918;7.092;2023-03-21T12:18:27;13.77;;;4.90;;
3698;SDS011;1865;50.918;7.092;2023-03-21T12:29:56;11.97;;;5.23;;
3698;SDS011;1865;50.918;7.092;2023-03-21T12:35:31;10.90;;;3.90;;
3698;SDS011;1865;50.918;7.092;2023-03-21T12:38:12;13.30;;;3.90;;
3698;SDS011;1865;50.918;7.092;2023-03-21T12:44:04;9.03;;;4.43;;
3698;SDS011;1865;50.918;7.092;2023-03-21T12:46:43;8.07;;;4.10;;
3698;SDS011;1865;50.918;7.092;2023-03-21T12:57:48;10.17;;;4.83;;
3698;SDS011;1865;50.918;7.092;2023-03-21T13:00:21;12.83;;;5.50;;
3698;SDS011;1865;50.918;7.092;2023-03-21T13:03:04;12.37;;;4.13;;
3698;SDS011;1865;50.918;7.092;2023-03-21T13:05:54;15.37;;;4.93;;
3698;SDS011;1865;50.918;7.092;2023-03-21T13:11:03;11.30;;;4.13;;
3698;SDS011;1865;50.918;7.092;2023-03-21T13:13:32;20.97;;;4.83;;
3698;SDS011;1865;50.918;7.092;2023-03-21T13:16:05;8.87;;;3.93;;
3698;SDS011;1865;50.918;7.092;2023-03-21T13:18:38;10.53;;;4.27;;
3698;SDS011;1865;50.918;7.092;2023-03-21T13:21:35;13.00;;;4.13;;
3698;SDS011;1865;50.918;7.092;2023-03-21T13:27:04;10.20;;;3.90;;
3698;SDS011;1865;50.918;7.092;2023-03-21T13:29:44;8.30;;;3.60;;
3698;SDS011;1865;50.918;7.092;2023-03-21T13:32:16;10.83;;;4.60;;
3698;SDS011;1865;50.918;7.092;2023-03-21T13:34:56;10.23;;;3.83;;
3698;SDS011;1865;50.918;7.092;2023-03-21T13:37:38;14.50;;;4.60;;
3698;SDS011;1865;50.918;7.092;2023-03-21T13:40:11;16.30;;;4.70;;
3698;SDS011;1865;50.918;7.092;2023-03-21T13:42:50;9.83;;;4.00;;
3698;SDS011;1865;50.918;7.092;2023-03-21T13:45:30;14.83;;;4.20;;
3698;SDS011;1865;50.918;7.092;2023-03-21T13:47:59;12.17;;;4.13;;
3698;SDS011;1865;50.918;7.092;2023-03-21T13:50:32;12.53;;;4.50;;
3698;SDS011;1865;50.918;7.092;2023-03-21T13:53:23;12.27;;;4.43;;
3698;SDS011;1865;50.918;7.092;2023-03-21T13:56:00;7.63;;;3.80;;
3698;SDS011;1865;50.918;7.092;2023-03-21T13:58:49;7.13;;;3.23;;
3698;SDS011;1865;50.918;7.092;2023-03-21T14:03:58;9.23;;;3.50;;
3698;SDS011;1865;50.918;7.092;2023-03-21T14:06:29;10.40;;;3.70;;
3698;SDS011;1865;50.918;7.092;2023-03-21T14:08:58;9.13;;;3.33;;
3698;SDS011;1865;50.918;7.092;2023-03-21T14:11:25;10.20;;;3.37;;
3698;SDS011;1865;50.918;7.092;2023-03-21T14:13:53;9.43;;;3.40;;
3698;SDS011;1865;50.918;7.092;2023-03-21T14:16:20;10.40;;;3.50;;
3698;SDS011;1865;50.918;7.092;2023-03-21T14:19:02;9.97;;;3.10;;
3698;SDS011;1865;50.918;7.092;2023-03-21T14:21:31;7.87;;;3.20;;
3698;SDS011;1865;50.918;7.092;2023-03-21T14:23:59;7.93;;;3.27;;
3698;SDS011;1865;50.918;7.092;2023-03-21T14:26:28;9.67;;;3.50;;
3698;SDS011;1865;50.918;7.092;2023-03-21T14:28:56;7.63;;;3.30;;
3698;SDS011;1865;50.918;7.092;2023-03-21T14:31:22;8.50;;;3.40;;
3698;SDS011;1865;50.918;7.092;2023-03-21T14:33:51;15.23;;;3.70;;
3698;SDS011;1865;50.918;7.092;2023-03-21T14:36:27;9.07;;;2.93;;
3698;SDS011;1865;50.918;7.092;2023-03-21T14:41:29;10.80;;;3.80;;
3698;SDS011;1865;50.918;7.092;2023-03-21T14:47:00;11.37;;;3.53;;
3698;SDS011;1865;50.918;7.092;2023-03-21T14:49:34;11.50;;;3.50;;
3698;SDS011;1865;50.918;7.092;2023-03-21T14:52:02;9.97;;;3.90;;
3698;SDS011;1865;50.918;7.092;2023-03-21T14:54:35;9.40;;;4.13;;
3698;SDS011;1865;50.918;7.092;2023-03-21T14:57:06;9.00;;;3.33;;
3698;SDS011;1865;50.918;7.092;2023-03-21T14:59:35;9.00;;;3.30;;
3698;SDS011;1865;50.918;7.092;2023-03-21T15:02:04;8.43;;;3.10;;
3698;SDS011;1865;50.918;7.092;2023-03-21T15:04:39;7.00;;;3.20;;
3698;SDS011;1865;50.918;7.092;2023-03-21T15:07:05;6.57;;;2.90;;
3698;SDS011;1865;50.918;7.092;2023-03-21T15:09:32;10.43;;;3.27;;
3698;SDS011;1865;50.918;7.092;2023-03-21T15:11:59;7.40;;;2.57;;
3698;SDS011;1865;50.918;7.092;2023-03-21T15:14:32;9.77;;;3.03;;
3698;SDS011;1865;50.918;7.092;2023-03-21T15:16:59;11.27;;;3.67;;
3698;SDS011;1865;50.918;7.092;2023-03-21T15:19:29;8.27;;;3.23;;
3698;SDS011;1865;50.918;7.092;2023-03-21T15:22:40;6.97;;;2.97;;
3698;SDS011;1865;50.918;7.092;2023-03-21T15:24:50;9.37;;;3.10;;
3698;SDS011;1865;50.918;7.092;2023-03-21T15:27:22;10.60;;;3.20;;
3698;SDS011;1865;50.918;7.092;2023-03-21T15:29:49;9.60;;;2.87;;
3698;SDS011;1865;50.918;7.092;2023-03-21T15:32:19;9.83;;;3.00;;
3698;SDS011;1865;50.918;7.092;2023-03-21T15:34:46;6.20;;;2.30;;
3698;SDS011;1865;50.918;7.092;2023-03-21T15:37:15;10.23;;;3.10;;
3698;SDS011;1865;50.918;7.092;2023-03-21T15:39:51;9.83;;;2.50;;
3698;SDS011;1865;50.918;7.092;2023-03-21T15:42:29;9.57;;;2.50;;
3698;SDS011;1865;50.918;7.092;2023-03-21T15:45:00;9.70;;;2.70;;
3698;SDS011;1865;50.918;7.092;2023-03-21T15:47:49;12.30;;;2.53;;
3698;SDS011;1865;50.918;7.092;2023-03-21T15:53:15;10.17;;;2.70;;
3698;SDS011;1865;50.918;7.092;2023-03-21T15:55:50;11.33;;;3.13;;
3698;SDS011;1865;50.918;7.092;2023-03-21T15:58:21;7.00;;;2.03;;
3698;SDS011;1865;50.918;7.092;2023-03-21T16:00:50;7.50;;;2.10;;
3698;SDS011;1865;50.918;7.092;2023-03-21T16:03:27;7.80;;;2.77;;
3698;SDS011;1865;50.918;7.092;2023-03-21T16:08:43;8.73;;;2.60;;
3698;SDS011;1865;50.918;7.092;2023-03-21T16:13:49;8.90;;;2.27;;
3698;SDS011;1865;50.918;7.092;2023-03-21T16:16:17;10.20;;;2.30;;
3698;SDS011;1865;50.918;7.092;2023-03-21T16:18:48;11.47;;;2.27;;
3698;SDS011;1865;50.918;7.092;2023-03-21T16:21:15;12.07;;;3.63;;
3698;SDS011;1865;50.918;7.092;2023-03-21T16:23:43;10.23;;;4.00;;
3698;SDS011;1865;50.918;7.092;2023-03-21T16:26:10;9.40;;;3.43;;
3698;SDS011;1865;50.918;7.092;2023-03-21T16:28:37;7.20;;;2.90;;
3698;SDS011;1865;50.918;7.092;2023-03-21T16:31:03;11.70;;;4.67;;
3698;SDS011;1865;50.918;7.092;2023-03-21T16:33:28;8.80;;;3.07;;
3698;SDS011;1865;50.918;7.092;2023-03-21T16:35:54;11.13;;;4.13;;
3698;SDS011;1865;50.918;7.092;2023-03-21T16:38:21;11.13;;;2.60;;
3698;SDS011;1865;50.918;7.092;2023-03-21T16:40:47;8.43;;;2.37;;
3698;SDS011;1865;50.918;7.092;2023-03-21T16:43:13;15.53;;;2.70;;
3698;SDS011;1865;50.918;7.092;2023-03-21T16:45:38;9.80;;;2.43;;